sensor_id;sensor_type;location;lat;lon;timestamp;temperature;humidity
48734;DHT22;34530;52.084;5.146;2023-02-23T00:00:34;15.00;76.50
48734;DHT22;34530;52.084;5.146;2023-02-23T00:03:01;15.00;76.50
48734;DHT22;34530;52.084;5.146;2023-02-23T00:05:34;15.00;76.60
48734;DHT22;34530;52.084;5.146;2023-02-23T00:08:00;15.00;76.60
48734;DHT22;34530;52.084;5.146;2023-02-23T00:10:26;15.00;76.60
48734;DHT22;34530;52.084;5.146;2023-02-23T04:39:30;14.70;77.00
48734;DHT22;34530;52.084;5.146;2023-02-23T04:41:55;14.80;77.00
48734;DHT22;34530;52.084;5.146;2023-02-23T04:44:21;14.80;77.00
48734;DHT22;34530;52.084;5.146;2023-02-23T04:46:47;14.80;76.90
48734;DHT22;34530;52.084;5.146;2023-02-23T04:49:12;14.80;76.90
48734;DHT22;34530;52.084;5.146;2023-02-23T04:51:38;14.80;76.80
48734;DHT22;34530;52.084;5.146;2023-02-23T04:54:04;14.80;76.80
48734;DHT22;34530;52.084;5.146;2023-02-23T04:56:29;14.80;76.80
48734;DHT22;34530;52.084;5.146;2023-02-23T04:58:55;14.80;76.80
48734;DHT22;34530;52.084;5.146;2023-02-23T05:01:21;14.80;76.70
48734;DHT22;34530;52.084;5.146;2023-02-23T05:03:50;14.80;76.70
48734;DHT22;34530;52.084;5.146;2023-02-23T05:06:16;14.80;76.60
48734;DHT22;34530;52.084;5.146;2023-02-23T05:08:42;14.80;76.60
48734;DHT22;34530;52.084;5.146;2023-02-23T05:11:08;14.80;76.60
48734;DHT22;34530;52.084;5.146;2023-02-23T05:13:34;14.80;76.60
48734;DHT22;34530;52.084;5.146;2023-02-23T05:16:00;14.80;76.60
48734;DHT22;34530;52.084;5.146;2023-02-23T05:18:25;14.80;76.60
48734;DHT22;34530;52.084;5.146;2023-02-23T05:20:52;14.80;76.60
48734;DHT22;34530;52.084;5.146;2023-02-23T05:23:18;14.80;76.60
48734;DHT22;34530;52.084;5.146;2023-02-23T05:25:44;14.80;76.50
48734;DHT22;34530;52.084;5.146;2023-02-23T05:28:10;14.80;76.50
48734;DHT22;34530;52.084;5.146;2023-02-23T05:30:35;14.80;76.50
48734;DHT22;34530;52.084;5.146;2023-02-23T05:33:01;14.80;76.50
48734;DHT22;34530;52.084;5.146;2023-02-23T05:35:27;14.80;76.50
48734;DHT22;34530;52.084;5.146;2023-02-23T05:37:53;14.80;76.50
48734;DHT22;34530;52.084;5.146;2023-02-23T05:40:18;14.80;76.50
48734;DHT22;34530;52.084;5.146;2023-02-23T05:42:44;14.80;76.40
48734;DHT22;34530;52.084;5.146;2023-02-23T05:45:10;14.80;76.40
48734;DHT22;34530;52.084;5.146;2023-02-23T05:47:35;14.80;76.40
48734;DHT22;34530;52.084;5.146;2023-02-23T05:50:05;14.80;76.40
48734;DHT22;34530;52.084;5.146;2023-02-23T05:52:31;14.80;76.40
48734;DHT22;34530;52.084;5.146;2023-02-23T05:54:57;14.80;76.40
48734;DHT22;34530;52.084;5.146;2023-02-23T05:57:23;14.80;76.40
48734;DHT22;34530;52.084;5.146;2023-02-23T05:59:48;14.80;76.40
48734;DHT22;34530;52.084;5.146;2023-02-23T06:02:14;14.80;76.40
48734;DHT22;34530;52.084;5.146;2023-02-23T06:04:39;14.80;76.40
48734;DHT22;34530;52.084;5.146;2023-02-23T06:07:06;14.80;76.40
48734;DHT22;34530;52.084;5.146;2023-02-23T06:09:32;14.80;76.40
48734;DHT22;34530;52.084;5.146;2023-02-23T06:11:58;14.80;76.40
48734;DHT22;34530;52.084;5.146;2023-02-23T06:14:25;14.80;76.30
48734;DHT22;34530;52.084;5.146;2023-02-23T06:16:50;14.80;76.40
48734;DHT22;34530;52.084;5.146;2023-02-23T06:19:16;14.80;76.40
48734;DHT22;34530;52.084;5.146;2023-02-23T06:21:42;14.80;76.30
48734;DHT22;34530;52.084;5.146;2023-02-23T06:24:07;14.80;76.30
48734;DHT22;34530;52.084;5.146;2023-02-23T06:26:33;14.80;76.30
48734;DHT22;34530;52.084;5.146;2023-02-23T06:29:00;14.80;76.30
48734;DHT22;34530;52.084;5.146;2023-02-23T06:31:25;14.80;76.30
48734;DHT22;34530;52.084;5.146;2023-02-23T06:33:51;14.80;76.30
48734;DHT22;34530;52.084;5.146;2023-02-23T06:36:17;14.70;76.30
48734;DHT22;34530;52.084;5.146;2023-02-23T06:38:42;14.80;76.30
48734;DHT22;34530;52.084;5.146;2023-02-23T06:41:10;14.80;76.40
48734;DHT22;34530;52.084;5.146;2023-02-23T06:43:36;14.70;76.40
48734;DHT22;34530;52.084;5.146;2023-02-23T06:46:02;14.80;76.40
48734;DHT22;34530;52.084;5.146;2023-02-23T06:48:28;14.70;76.40
48734;DHT22;34530;52.084;5.146;2023-02-23T06:50:56;14.80;76.40
48734;DHT22;34530;52.084;5.146;2023-02-23T06:53:22;14.80;76.40
48734;DHT22;34530;52.084;5.146;2023-02-23T06:55:49;14.70;76.40
48734;DHT22;34530;52.084;5.146;2023-02-23T06:58:14;14.80;76.50
48734;DHT22;34530;52.084;5.146;2023-02-23T07:00:40;14.70;76.50
48734;DHT22;34530;52.084;5.146;2023-02-23T07:03:08;14.80;76.60
48734;DHT22;34530;52.084;5.146;2023-02-23T07:05:34;14.70;76.50
48734;DHT22;34530;52.084;5.146;2023-02-23T07:08:00;14.80;76.60
48734;DHT22;34530;52.084;5.146;2023-02-23T07:10:25;14.80;76.60
48734;DHT22;34530;52.084;5.146;2023-02-23T07:12:52;14.80;76.60
48734;DHT22;34530;52.084;5.146;2023-02-23T07:15:19;14.80;76.60
48734;DHT22;34530;52.084;5.146;2023-02-23T07:17:45;14.80;76.60
48734;DHT22;34530;52.084;5.146;2023-02-23T07:20:14;14.70;76.60
48734;DHT22;34530;52.084;5.146;2023-02-23T07:22:39;14.70;76.60
48734;DHT22;34530;52.084;5.146;2023-02-23T07:25:05;14.70;76.60
48734;DHT22;34530;52.084;5.146;2023-02-23T07:27:31;14.80;76.60
48734;DHT22;34530;52.084;5.146;2023-02-23T07:29:57;14.70;76.60
48734;DHT22;34530;52.084;5.146;2023-02-23T07:32:22;14.80;76.60
48734;DHT22;34530;52.084;5.146;2023-02-23T07:34:48;14.70;76.60
48734;DHT22;34530;52.084;5.146;2023-02-23T07:37:14;14.70;76.50
48734;DHT22;34530;52.084;5.146;2023-02-23T07:39:39;14.70;76.50
48734;DHT22;34530;52.084;5.146;2023-02-23T07:42:05;14.70;76.50
48734;DHT22;34530;52.084;5.146;2023-02-23T07:44:30;14.80;76.60
48734;DHT22;34530;52.084;5.146;2023-02-23T07:46:56;14.70;76.50
48734;DHT22;34530;52.084;5.146;2023-02-23T07:49:22;14.70;76.50
48734;DHT22;34530;52.084;5.146;2023-02-23T07:51:47;14.70;76.50
48734;DHT22;34530;52.084;5.146;2023-02-23T07:54:13;14.70;76.50
48734;DHT22;34530;52.084;5.146;2023-02-23T07:56:39;14.70;76.50
48734;DHT22;34530;52.084;5.146;2023-02-23T07:59:04;14.70;76.50
48734;DHT22;34530;52.084;5.146;2023-02-23T08:01:30;14.70;76.50
48734;DHT22;34530;52.084;5.146;2023-02-23T08:03:56;14.70;76.40
48734;DHT22;34530;52.084;5.146;2023-02-23T08:06:21;14.70;76.40
48734;DHT22;34530;52.084;5.146;2023-02-23T08:08:47;14.70;76.50
48734;DHT22;34530;52.084;5.146;2023-02-23T08:11:12;14.70;76.40
48734;DHT22;34530;52.084;5.146;2023-02-23T08:13:38;14.70;76.40
48734;DHT22;34530;52.084;5.146;2023-02-23T08:16:04;14.70;76.40
48734;DHT22;34530;52.084;5.146;2023-02-23T08:18:30;14.70;76.40
48734;DHT22;34530;52.084;5.146;2023-02-23T08:21:02;14.70;76.40
48734;DHT22;34530;52.084;5.146;2023-02-23T08:23:29;14.70;76.40
48734;DHT22;34530;52.084;5.146;2023-02-23T08:25:55;14.70;76.40
48734;DHT22;34530;52.084;5.146;2023-02-23T08:28:21;14.70;76.40
48734;DHT22;34530;52.084;5.146;2023-02-23T08:30:49;14.70;76.40
48734;DHT22;34530;52.084;5.146;2023-02-23T08:33:15;14.70;76.40
48734;DHT22;34530;52.084;5.146;2023-02-23T08:35:41;14.70;76.40
48734;DHT22;34530;52.084;5.146;2023-02-23T08:38:06;14.70;76.40
48734;DHT22;34530;52.084;5.146;2023-02-23T08:40:32;14.70;76.40
48734;DHT22;34530;52.084;5.146;2023-02-23T08:42:58;14.70;76.40
48734;DHT22;34530;52.084;5.146;2023-02-23T08:45:23;14.70;76.30
48734;DHT22;34530;52.084;5.146;2023-02-23T08:47:49;14.70;76.30
48734;DHT22;34530;52.084;5.146;2023-02-23T08:50:15;14.70;76.40
48734;DHT22;34530;52.084;5.146;2023-02-23T08:52:41;14.70;76.30
48734;DHT22;34530;52.084;5.146;2023-02-23T08:55:07;14.70;76.30
48734;DHT22;34530;52.084;5.146;2023-02-23T08:57:36;14.70;76.30
48734;DHT22;34530;52.084;5.146;2023-02-23T09:00:03;14.70;76.30
48734;DHT22;34530;52.084;5.146;2023-02-23T09:02:39;14.70;76.30
48734;DHT22;34530;52.084;5.146;2023-02-23T09:05:06;14.70;76.30
48734;DHT22;34530;52.084;5.146;2023-02-23T09:07:32;14.70;76.30
48734;DHT22;34530;52.084;5.146;2023-02-23T09:09:58;14.70;76.30
48734;DHT22;34530;52.084;5.146;2023-02-23T09:12:23;14.70;76.30
48734;DHT22;34530;52.084;5.146;2023-02-23T09:14:49;14.70;76.20
48734;DHT22;34530;52.084;5.146;2023-02-23T09:17:17;14.70;76.20
48734;DHT22;34530;52.084;5.146;2023-02-23T09:19:43;14.70;76.20
48734;DHT22;34530;52.084;5.146;2023-02-23T09:22:08;14.70;76.20
48734;DHT22;34530;52.084;5.146;2023-02-23T09:24:34;14.70;76.20
48734;DHT22;34530;52.084;5.146;2023-02-23T09:27:00;14.70;76.20
48734;DHT22;34530;52.084;5.146;2023-02-23T09:29:25;14.70;76.20
48734;DHT22;34530;52.084;5.146;2023-02-23T09:31:51;14.70;76.20
48734;DHT22;34530;52.084;5.146;2023-02-23T09:34:20;14.70;76.20
48734;DHT22;34530;52.084;5.146;2023-02-23T09:36:45;14.70;76.20
48734;DHT22;34530;52.084;5.146;2023-02-23T09:39:11;14.70;76.20
48734;DHT22;34530;52.084;5.146;2023-02-23T09:47:19;14.70;76.20
48734;DHT22;34530;52.084;5.146;2023-02-23T09:49:48;14.70;76.20
48734;DHT22;34530;52.084;5.146;2023-02-23T09:52:21;14.70;76.20
48734;DHT22;34530;52.084;5.146;2023-02-23T09:54:48;14.70;76.10
48734;DHT22;34530;52.084;5.146;2023-02-23T09:57:18;14.70;76.10
48734;DHT22;34530;52.084;5.146;2023-02-23T09:59:45;14.70;76.10
48734;DHT22;34530;52.084;5.146;2023-02-23T10:02:26;14.70;76.10
48734;DHT22;34530;52.084;5.146;2023-02-23T10:05:01;14.70;76.10
48734;DHT22;34530;52.084;5.146;2023-02-23T10:13:14;14.70;76.00
48734;DHT22;34530;52.084;5.146;2023-02-23T10:15:56;14.70;76.10
48734;DHT22;34530;52.084;5.146;2023-02-23T10:18:38;14.70;76.10
48734;DHT22;34530;52.084;5.146;2023-02-23T10:21:35;14.70;76.10
48734;DHT22;34530;52.084;5.146;2023-02-23T10:24:23;14.70;76.00
48734;DHT22;34530;52.084;5.146;2023-02-23T10:26:59;14.70;76.10
48734;DHT22;34530;52.084;5.146;2023-02-23T10:29:29;14.70;76.10
48734;DHT22;34530;52.084;5.146;2023-02-23T10:32:04;14.70;76.10
48734;DHT22;34530;52.084;5.146;2023-02-23T10:34:30;14.70;76.00
48734;DHT22;34530;52.084;5.146;2023-02-23T10:37:00;14.70;76.10
48734;DHT22;34530;52.084;5.146;2023-02-23T10:39:28;14.70;76.00
48734;DHT22;34530;52.084;5.146;2023-02-23T10:41:58;14.70;76.00
48734;DHT22;34530;52.084;5.146;2023-02-23T10:44:26;14.70;76.00
48734;DHT22;34530;52.084;5.146;2023-02-23T10:47:06;14.70;76.00
48734;DHT22;34530;52.084;5.146;2023-02-23T10:52:19;14.70;75.90
48734;DHT22;34530;52.084;5.146;2023-02-23T10:54:47;14.70;75.90
48734;DHT22;34530;52.084;5.146;2023-02-23T10:57:33;14.70;75.90
48734;DHT22;34530;52.084;5.146;2023-02-23T11:02:37;14.70;75.90
48734;DHT22;34530;52.084;5.146;2023-02-23T11:05:04;14.70;75.90
48734;DHT22;34530;52.084;5.146;2023-02-23T11:07:32;14.70;75.90
48734;DHT22;34530;52.084;5.146;2023-02-23T11:09:59;14.70;75.90
48734;DHT22;34530;52.084;5.146;2023-02-23T11:12:38;14.70;75.90
48734;DHT22;34530;52.084;5.146;2023-02-23T11:15:33;14.70;75.80
48734;DHT22;34530;52.084;5.146;2023-02-23T11:18:04;14.70;75.70
48734;DHT22;34530;52.084;5.146;2023-02-23T11:20:40;14.70;75.80
48734;DHT22;34530;52.084;5.146;2023-02-23T11:23:29;14.70;75.70
48734;DHT22;34530;52.084;5.146;2023-02-23T11:25:58;14.70;75.80
48734;DHT22;34530;52.084;5.146;2023-02-23T11:28:34;14.70;75.80
48734;DHT22;34530;52.084;5.146;2023-02-23T11:31:29;14.70;75.70
48734;DHT22;34530;52.084;5.146;2023-02-23T11:33:55;14.70;75.80
48734;DHT22;34530;52.084;5.146;2023-02-23T11:36:25;14.70;76.50
48734;DHT22;34530;52.084;5.146;2023-02-23T11:41:26;14.70;75.70
48734;DHT22;34530;52.084;5.146;2023-02-23T11:43:59;14.70;75.70
48734;DHT22;34530;52.084;5.146;2023-02-23T11:46:28;14.70;75.70
48734;DHT22;34530;52.084;5.146;2023-02-23T11:49:06;14.70;75.70
48734;DHT22;34530;52.084;5.146;2023-02-23T11:51:38;14.70;75.70
48734;DHT22;34530;52.084;5.146;2023-02-23T11:54:05;14.70;75.70
48734;DHT22;34530;52.084;5.146;2023-02-23T11:56:34;14.70;75.70
48734;DHT22;34530;52.084;5.146;2023-02-23T11:59:03;14.70;75.60
48734;DHT22;34530;52.084;5.146;2023-02-23T12:01:49;14.70;75.60
48734;DHT22;34530;52.084;5.146;2023-02-23T12:04:27;14.70;75.60
48734;DHT22;34530;52.084;5.146;2023-02-23T12:07:17;14.70;75.60
48734;DHT22;34530;52.084;5.146;2023-02-23T12:09:45;14.70;75.60
48734;DHT22;34530;52.084;5.146;2023-02-23T12:12:15;14.70;75.60
48734;DHT22;34530;52.084;5.146;2023-02-23T12:14:50;14.70;75.60
48734;DHT22;34530;52.084;5.146;2023-02-23T12:17:22;14.70;75.50
48734;DHT22;34530;52.084;5.146;2023-02-23T12:22:42;14.70;75.50
48734;DHT22;34530;52.084;5.146;2023-02-23T12:30:38;14.70;75.50
48734;DHT22;34530;52.084;5.146;2023-02-23T12:33:23;14.70;75.50
48734;DHT22;34530;52.084;5.146;2023-02-23T12:36:36;14.70;75.40
48734;DHT22;34530;52.084;5.146;2023-02-23T12:39:05;14.70;75.40
48734;DHT22;34530;52.084;5.146;2023-02-23T12:41:41;14.70;75.50
48734;DHT22;34530;52.084;5.146;2023-02-23T12:44:33;14.70;75.40
48734;DHT22;34530;52.084;5.146;2023-02-23T12:47:08;14.70;75.40
48734;DHT22;34530;52.084;5.146;2023-02-23T12:52:52;14.70;75.40
48734;DHT22;34530;52.084;5.146;2023-02-23T12:55:33;14.70;75.40
48734;DHT22;34530;52.084;5.146;2023-02-23T12:58:48;14.80;75.50
48734;DHT22;34530;52.084;5.146;2023-02-23T13:01:23;14.70;76.10
48734;DHT22;34530;52.084;5.146;2023-02-23T13:09:29;14.70;75.30
48734;DHT22;34530;52.084;5.146;2023-02-23T13:12:44;14.70;75.30
48734;DHT22;34530;52.084;5.146;2023-02-23T13:18:19;14.80;75.20
48734;DHT22;34530;52.084;5.146;2023-02-23T13:21:08;14.80;75.30
48734;DHT22;34530;52.084;5.146;2023-02-23T13:24:03;14.80;75.30
48734;DHT22;34530;52.084;5.146;2023-02-23T13:26:48;14.80;75.40
48734;DHT22;34530;52.084;5.146;2023-02-23T13:29:57;14.90;75.60
48734;DHT22;34530;52.084;5.146;2023-02-23T13:32:21;14.90;75.70
48734;DHT22;34530;52.084;5.146;2023-02-23T13:34:59;14.90;75.60
48734;DHT22;34530;52.084;5.146;2023-02-23T13:40:34;15.00;75.60
48734;DHT22;34530;52.084;5.146;2023-02-23T13:43:15;15.00;75.60
48734;DHT22;34530;52.084;5.146;2023-02-23T13:46:00;15.10;75.50
48734;DHT22;34530;52.084;5.146;2023-02-23T13:48:50;15.10;75.60
48734;DHT22;34530;52.084;5.146;2023-02-23T13:51:23;15.10;75.50
48734;DHT22;34530;52.084;5.146;2023-02-23T13:53:59;15.20;75.50
48734;DHT22;34530;52.084;5.146;2023-02-23T13:56:31;15.20;75.50
48734;DHT22;34530;52.084;5.146;2023-02-23T13:59:01;15.20;75.40
48734;DHT22;34530;52.084;5.146;2023-02-23T14:01:30;15.20;75.30
48734;DHT22;34530;52.084;5.146;2023-02-23T14:03:59;15.20;75.20
48734;DHT22;34530;52.084;5.146;2023-02-23T14:06:29;15.20;75.20
48734;DHT22;34530;52.084;5.146;2023-02-23T14:09:10;15.30;75.20
48734;DHT22;34530;52.084;5.146;2023-02-23T14:11:50;15.30;75.10
48734;DHT22;34530;52.084;5.146;2023-02-23T14:19:42;15.30;75.20
48734;DHT22;34530;52.084;5.146;2023-02-23T14:22:12;15.30;75.30
48734;DHT22;34530;52.084;5.146;2023-02-23T14:24:38;15.40;75.30
48734;DHT22;34530;52.084;5.146;2023-02-23T14:27:22;15.40;75.40
48734;DHT22;34530;52.084;5.146;2023-02-23T14:32:42;15.40;75.40
48734;DHT22;34530;52.084;5.146;2023-02-23T14:35:41;15.50;75.70
48734;DHT22;34530;52.084;5.146;2023-02-23T14:38:14;15.50;75.90
48734;DHT22;34530;52.084;5.146;2023-02-23T14:40:41;15.50;76.20
48734;DHT22;34530;52.084;5.146;2023-02-23T14:43:30;15.50;76.40
48734;DHT22;34530;52.084;5.146;2023-02-23T14:45:57;15.60;76.60
48734;DHT22;34530;52.084;5.146;2023-02-23T14:48:23;15.60;76.80
48734;DHT22;34530;52.084;5.146;2023-02-23T14:50:50;15.60;77.00
48734;DHT22;34530;52.084;5.146;2023-02-23T14:53:19;15.70;77.10
48734;DHT22;34530;52.084;5.146;2023-02-23T14:55:46;15.70;77.30
48734;DHT22;34530;52.084;5.146;2023-02-23T14:58:30;15.70;77.40
48734;DHT22;34530;52.084;5.146;2023-02-23T15:00:57;15.70;77.50
48734;DHT22;34530;52.084;5.146;2023-02-23T15:03:23;15.80;77.80
48734;DHT22;34530;52.084;5.146;2023-02-23T15:05:56;15.80;77.80
48734;DHT22;34530;52.084;5.146;2023-02-23T15:08:25;15.80;78.00
48734;DHT22;34530;52.084;5.146;2023-02-23T15:11:12;15.80;78.00
48734;DHT22;34530;52.084;5.146;2023-02-23T15:13:47;15.80;78.10
48734;DHT22;34530;52.084;5.146;2023-02-23T15:16:22;15.90;78.30
48734;DHT22;34530;52.084;5.146;2023-02-23T15:18:49;15.90;78.40
48734;DHT22;34530;52.084;5.146;2023-02-23T15:21:18;15.90;78.40
48734;DHT22;34530;52.084;5.146;2023-02-23T15:23:48;15.90;78.50
48734;DHT22;34530;52.084;5.146;2023-02-23T15:26:34;15.90;78.60
48734;DHT22;34530;52.084;5.146;2023-02-23T15:31:41;16.00;78.80
48734;DHT22;34530;52.084;5.146;2023-02-23T15:34:34;16.00;79.70
48734;DHT22;34530;52.084;5.146;2023-02-23T15:37:06;16.00;79.00
48734;DHT22;34530;52.084;5.146;2023-02-23T15:39:49;16.00;79.00
48734;DHT22;34530;52.084;5.146;2023-02-23T15:42:20;16.00;79.10
48734;DHT22;34530;52.084;5.146;2023-02-23T15:44:53;16.00;79.20
48734;DHT22;34530;52.084;5.146;2023-02-23T15:47:22;16.00;79.20
48734;DHT22;34530;52.084;5.146;2023-02-23T15:50:16;16.00;79.20
48734;DHT22;34530;52.084;5.146;2023-02-23T15:52:46;16.40;78.70
48734;DHT22;34530;52.084;5.146;2023-02-23T15:55:18;16.20;78.90
48734;DHT22;34530;52.084;5.146;2023-02-23T15:57:58;16.20;79.10
48734;DHT22;34530;52.084;5.146;2023-02-23T16:00:39;16.20;79.20
48734;DHT22;34530;52.084;5.146;2023-02-23T16:03:07;16.10;79.30
48734;DHT22;34530;52.084;5.146;2023-02-23T16:06:39;16.10;79.70
48734;DHT22;34530;52.084;5.146;2023-02-23T16:08:57;16.10;80.00
48734;DHT22;34530;52.084;5.146;2023-02-23T16:11:24;16.10;80.20
48734;DHT22;34530;52.084;5.146;2023-02-23T16:13:51;16.10;80.50
48734;DHT22;34530;52.084;5.146;2023-02-23T16:16:18;16.10;80.60
48734;DHT22;34530;52.084;5.146;2023-02-23T16:18:54;16.10;80.90
48734;DHT22;34530;52.084;5.146;2023-02-23T16:21:27;16.10;81.00
48734;DHT22;34530;52.084;5.146;2023-02-23T16:23:57;16.10;81.20
48734;DHT22;34530;52.084;5.146;2023-02-23T16:27:04;16.10;81.30
48734;DHT22;34530;52.084;5.146;2023-02-23T16:29:36;16.10;81.20
48734;DHT22;34530;52.084;5.146;2023-02-23T16:32:18;16.10;81.40
48734;DHT22;34530;52.084;5.146;2023-02-23T16:34:54;16.10;81.50
48734;DHT22;34530;52.084;5.146;2023-02-23T16:37:24;16.10;81.60
48734;DHT22;34530;52.084;5.146;2023-02-23T16:39:53;16.00;81.80
48734;DHT22;34530;52.084;5.146;2023-02-23T16:42:30;16.20;82.00
48734;DHT22;34530;52.084;5.146;2023-02-23T16:44:56;16.10;82.00
48734;DHT22;34530;52.084;5.146;2023-02-23T16:49:49;16.10;82.10
48734;DHT22;34530;52.084;5.146;2023-02-23T16:52:21;16.00;82.10
48734;DHT22;34530;52.084;5.146;2023-02-23T16:54:47;16.10;82.10
48734;DHT22;34530;52.084;5.146;2023-02-23T16:57:34;16.10;82.20
48734;DHT22;34530;52.084;5.146;2023-02-23T17:00:03;16.10;82.20
48734;DHT22;34530;52.084;5.146;2023-02-23T17:02:39;16.00;82.10
48734;DHT22;34530;52.084;5.146;2023-02-23T17:05:13;16.00;82.10
48734;DHT22;34530;52.084;5.146;2023-02-23T17:07:40;16.10;82.70
48734;DHT22;34530;52.084;5.146;2023-02-23T17:10:06;16.10;82.00
48734;DHT22;34530;52.084;5.146;2023-02-23T17:12:33;16.10;81.90
48734;DHT22;34530;52.084;5.146;2023-02-23T17:14:59;16.10;82.00
48734;DHT22;34530;52.084;5.146;2023-02-23T17:17:24;16.10;82.00
48734;DHT22;34530;52.084;5.146;2023-02-23T17:19:50;16.10;82.10
48734;DHT22;34530;52.084;5.146;2023-02-23T17:22:15;16.10;82.30
48734;DHT22;34530;52.084;5.146;2023-02-23T17:24:42;16.10;82.50
48734;DHT22;34530;52.084;5.146;2023-02-23T17:27:08;16.20;82.80
48734;DHT22;34530;52.084;5.146;2023-02-23T17:29:33;16.20;83.10
48734;DHT22;34530;52.084;5.146;2023-02-23T17:31:59;16.20;83.20
48734;DHT22;34530;52.084;5.146;2023-02-23T17:34:26;16.20;83.30
48734;DHT22;34530;52.084;5.146;2023-02-23T17:36:52;16.20;83.30
48734;DHT22;34530;52.084;5.146;2023-02-23T17:39:18;16.30;83.30
48734;DHT22;34530;52.084;5.146;2023-02-23T17:41:43;16.30;83.20
48734;DHT22;34530;52.084;5.146;2023-02-23T17:44:09;16.30;83.10
48734;DHT22;34530;52.084;5.146;2023-02-23T17:46:35;16.30;83.10
48734;DHT22;34530;52.084;5.146;2023-02-23T17:49:01;16.30;83.00
48734;DHT22;34530;52.084;5.146;2023-02-23T17:51:26;16.30;83.00
48734;DHT22;34530;52.084;5.146;2023-02-23T17:53:52;16.30;82.80
48734;DHT22;34530;52.084;5.146;2023-02-23T17:56:18;16.30;82.80
48734;DHT22;34530;52.084;5.146;2023-02-23T17:58:45;16.30;82.80
48734;DHT22;34530;52.084;5.146;2023-02-23T18:01:11;16.30;82.60
48734;DHT22;34530;52.084;5.146;2023-02-23T18:03:37;16.30;82.50
48734;DHT22;34530;52.084;5.146;2023-02-23T18:06:08;16.30;82.50
48734;DHT22;34530;52.084;5.146;2023-02-23T18:08:34;16.30;82.40
48734;DHT22;34530;52.084;5.146;2023-02-23T18:11:00;16.30;83.10
48734;DHT22;34530;52.084;5.146;2023-02-23T18:13:27;16.40;82.40
48734;DHT22;34530;52.084;5.146;2023-02-23T18:15:55;16.40;82.50
48734;DHT22;34530;52.084;5.146;2023-02-23T18:18:23;16.40;82.50
48734;DHT22;34530;52.084;5.146;2023-02-23T18:20:51;16.40;82.50
48734;DHT22;34530;52.084;5.146;2023-02-23T18:23:17;16.30;82.40
48734;DHT22;34530;52.084;5.146;2023-02-23T18:25:43;16.30;82.30
48734;DHT22;34530;52.084;5.146;2023-02-23T18:28:09;16.30;82.30
48734;DHT22;34530;52.084;5.146;2023-02-23T18:30:35;16.30;82.30
48734;DHT22;34530;52.084;5.146;2023-02-23T18:33:02;16.30;82.10
48734;DHT22;34530;52.084;5.146;2023-02-23T18:35:37;16.30;82.10
48734;DHT22;34530;52.084;5.146;2023-02-23T18:38:05;16.30;82.00
48734;DHT22;34530;52.084;5.146;2023-02-23T18:40:31;16.30;81.90
48734;DHT22;34530;52.084;5.146;2023-02-23T18:42:57;16.30;82.00
48734;DHT22;34530;52.084;5.146;2023-02-23T18:45:24;16.30;81.80
48734;DHT22;34530;52.084;5.146;2023-02-23T18:47:49;16.30;81.80
48734;DHT22;34530;52.084;5.146;2023-02-23T18:50:17;16.30;81.70
48734;DHT22;34530;52.084;5.146;2023-02-23T18:52:49;16.30;81.90
48734;DHT22;34530;52.084;5.146;2023-02-23T18:55:16;16.30;82.00
48734;DHT22;34530;52.084;5.146;2023-02-23T18:57:42;16.30;82.20
48734;DHT22;34530;52.084;5.146;2023-02-23T19:00:11;16.30;82.30
48734;DHT22;34530;52.084;5.146;2023-02-23T19:02:39;16.30;82.50
48734;DHT22;34530;52.084;5.146;2023-02-23T19:05:06;16.30;82.60
48734;DHT22;34530;52.084;5.146;2023-02-23T19:07:32;16.30;82.70
48734;DHT22;34530;52.084;5.146;2023-02-23T19:09:58;16.30;82.80
48734;DHT22;34530;52.084;5.146;2023-02-23T19:12:30;16.30;82.90
48734;DHT22;34530;52.084;5.146;2023-02-23T19:14:57;16.30;82.90
48734;DHT22;34530;52.084;5.146;2023-02-23T19:17:27;16.30;82.90
48734;DHT22;34530;52.084;5.146;2023-02-23T19:19:54;16.30;82.90
48734;DHT22;34530;52.084;5.146;2023-02-23T19:22:23;16.20;82.90
48734;DHT22;34530;52.084;5.146;2023-02-23T19:24:49;16.20;82.90
48734;DHT22;34530;52.084;5.146;2023-02-23T19:27:15;16.20;82.90
48734;DHT22;34530;52.084;5.146;2023-02-23T19:29:42;16.20;82.90
48734;DHT22;34530;52.084;5.146;2023-02-23T19:32:08;16.20;83.00
48734;DHT22;34530;52.084;5.146;2023-02-23T19:34:34;16.20;83.00
48734;DHT22;34530;52.084;5.146;2023-02-23T19:37:01;16.20;83.00
48734;DHT22;34530;52.084;5.146;2023-02-23T19:39:26;16.20;83.00
48734;DHT22;34530;52.084;5.146;2023-02-23T19:41:53;16.20;83.00
48734;DHT22;34530;52.084;5.146;2023-02-23T19:44:19;16.10;82.90
48734;DHT22;34530;52.084;5.146;2023-02-23T19:46:44;16.20;83.00
48734;DHT22;34530;52.084;5.146;2023-02-23T19:49:10;16.10;82.90
48734;DHT22;34530;52.084;5.146;2023-02-23T19:51:36;16.10;82.90
48734;DHT22;34530;52.084;5.146;2023-02-23T19:54:02;16.10;83.00
48734;DHT22;34530;52.084;5.146;2023-02-23T19:56:28;16.10;83.00
48734;DHT22;34530;52.084;5.146;2023-02-23T19:58:55;16.10;83.00
48734;DHT22;34530;52.084;5.146;2023-02-23T20:01:22;16.10;83.00
48734;DHT22;34530;52.084;5.146;2023-02-23T20:03:49;16.10;83.80
48734;DHT22;34530;52.084;5.146;2023-02-23T20:06:21;16.00;83.00
48734;DHT22;34530;52.084;5.146;2023-02-23T20:08:47;16.00;83.00
48734;DHT22;34530;52.084;5.146;2023-02-23T20:11:13;16.00;83.00
48734;DHT22;34530;52.084;5.146;2023-02-23T20:13:40;16.00;83.00
48734;DHT22;34530;52.084;5.146;2023-02-23T20:16:08;16.00;83.00
48734;DHT22;34530;52.084;5.146;2023-02-23T20:18:35;16.00;83.00
48734;DHT22;34530;52.084;5.146;2023-02-23T20:21:10;16.00;83.80
48734;DHT22;34530;52.084;5.146;2023-02-23T20:23:38;16.00;83.00
48734;DHT22;34530;52.084;5.146;2023-02-23T20:26:10;16.00;83.10
48734;DHT22;34530;52.084;5.146;2023-02-23T20:28:36;16.00;83.10
48734;DHT22;34530;52.084;5.146;2023-02-23T20:31:01;15.90;83.10
48734;DHT22;34530;52.084;5.146;2023-02-23T20:33:28;15.90;83.00
48734;DHT22;34530;52.084;5.146;2023-02-23T20:35:54;15.90;83.00
48734;DHT22;34530;52.084;5.146;2023-02-23T20:38:20;15.90;83.00
48734;DHT22;34530;52.084;5.146;2023-02-23T20:40:45;15.90;83.00
48734;DHT22;34530;52.084;5.146;2023-02-23T20:43:11;15.90;83.00
48734;DHT22;34530;52.084;5.146;2023-02-23T20:45:37;15.90;83.00
48734;DHT22;34530;52.084;5.146;2023-02-23T20:48:04;15.90;83.00
48734;DHT22;34530;52.084;5.146;2023-02-23T20:50:35;15.90;83.00
48734;DHT22;34530;52.084;5.146;2023-02-23T20:53:02;15.90;83.00
48734;DHT22;34530;52.084;5.146;2023-02-23T20:55:29;15.90;83.00
48734;DHT22;34530;52.084;5.146;2023-02-23T20:57:55;15.80;83.00
48734;DHT22;34530;52.084;5.146;2023-02-23T21:00:22;15.80;82.90
48734;DHT22;34530;52.084;5.146;2023-02-23T21:02:57;15.80;82.90
48734;DHT22;34530;52.084;5.146;2023-02-23T21:05:24;15.80;82.90
48734;DHT22;34530;52.084;5.146;2023-02-23T21:07:51;15.80;82.90
48734;DHT22;34530;52.084;5.146;2023-02-23T21:10:17;15.80;82.90